sensor_id;sensor_type;location;lat;lon;timestamp;pressure;altitude;pressure_sealevel;temperature;humidity
45939;BME280;31650;48.818;9.116;2022-10-17T00:10:06;98577.41;;;12.07;100.00
45939;BME280;31650;48.818;9.116;2022-10-17T00:25:07;98595.53;;;11.88;100.00
45939;BME280;31650;48.818;9.116;2022-10-17T00:40:07;98593.59;;;11.82;100.00
45939;BME280;31650;48.818;9.116;2022-10-17T01:10:08;98598.22;;;11.68;100.00
45939;BME280;31650;48.818;9.116;2022-10-17T01:25:28;98600.13;;;11.81;100.00
45939;BME280;31650;48.818;9.116;2022-10-17T01:41:41;98586.34;;;11.29;100.00
45939;BME280;31650;48.818;9.116;2022-10-17T01:56:09;98587.59;;;11.00;100.00
45939;BME280;31650;48.818;9.116;2022-10-17T02:11:33;98578.59;;;11.06;100.00
45939;BME280;31650;48.818;9.116;2022-10-17T02:41:51;98594.91;;;11.13;100.00
45939;BME280;31650;48.818;9.116;2022-10-17T02:56:54;98593.88;;;11.47;100.00
45939;BME280;31650;48.818;9.116;2022-10-17T03:11:56;98590.28;;;10.94;100.00
45939;BME280;31650;48.818;9.116;2022-10-17T03:26:57;98599.31;;;10.87;100.00
45939;BME280;31650;48.818;9.116;2022-10-17T03:41:57;98598.44;;;10.74;100.00
45939;BME280;31650;48.818;9.116;2022-10-17T03:56:57;98601.97;;;10.68;100.00
45939;BME280;31650;48.818;9.116;2022-10-17T04:11:57;98623.25;;;10.44;100.00
45939;BME280;31650;48.818;9.116;2022-10-17T04:26:57;98634.53;;;10.48;100.00
45939;BME280;31650;48.818;9.116;2022-10-17T04:41:58;98660.34;;;9.95;100.00
45939;BME280;31650;48.818;9.116;2022-10-17T04:56:58;98639.69;;;9.94;100.00
45939;BME280;31650;48.818;9.116;2022-10-17T05:11:58;98650.03;;;10.60;100.00
45939;BME280;31650;48.818;9.116;2022-10-17T05:26:58;98639.69;;;10.36;100.00
45939;BME280;31650;48.818;9.116;2022-10-17T05:41:59;98644.81;;;10.59;100.00
45939;BME280;31650;48.818;9.116;2022-10-17T05:56:59;98646.31;;;10.75;100.00
45939;BME280;31650;48.818;9.116;2022-10-17T06:11:59;98648.44;;;10.73;100.00
45939;BME280;31650;48.818;9.116;2022-10-17T06:26:59;98662.34;;;11.31;100.00
45939;BME280;31650;48.818;9.116;2022-10-17T06:42:00;98679.31;;;11.46;100.00
45939;BME280;31650;48.818;9.116;2022-10-17T06:57:00;98721.59;;;13.39;100.00
45939;BME280;31650;48.818;9.116;2022-10-17T07:12:01;98740.34;;;14.61;100.00
45939;BME280;31650;48.818;9.116;2022-10-17T07:27:01;98709.56;;;14.65;100.00
45939;BME280;31650;48.818;9.116;2022-10-17T07:42:01;98685.81;;;17.03;100.00
45939;BME280;31650;48.818;9.116;2022-10-17T07:57:02;98660.13;;;18.83;100.00
45939;BME280;31650;48.818;9.116;2022-10-17T08:12:02;98658.50;;;20.43;100.00
45939;BME280;31650;48.818;9.116;2022-10-17T08:27:02;98657.81;;;21.67;100.00
45939;BME280;31650;48.818;9.116;2022-10-17T08:57:16;98666.19;;;24.17;94.22
45939;BME280;31650;48.818;9.116;2022-10-17T09:12:19;98656.88;;;25.28;82.48
45939;BME280;31650;48.818;9.116;2022-10-17T09:27:24;98673.13;;;24.20;80.36
45939;BME280;31650;48.818;9.116;2022-10-17T09:42:25;98667.03;;;23.89;89.27
45939;BME280;31650;48.818;9.116;2022-10-17T09:57:25;98663.94;;;23.51;92.71
45939;BME280;31650;48.818;9.116;2022-10-17T10:12:31;98659.88;;;25.08;77.70
45939;BME280;31650;48.818;9.116;2022-10-17T10:27:31;98675.22;;;25.86;67.29
45939;BME280;31650;48.818;9.116;2022-10-17T10:42:35;98674.91;;;26.53;58.25
45939;BME280;31650;48.818;9.116;2022-10-17T10:57:36;98677.31;;;26.27;57.15
45939;BME280;31650;48.818;9.116;2022-10-17T11:12:45;98674.56;;;27.10;51.34
45939;BME280;31650;48.818;9.116;2022-10-17T11:27:48;98653.91;;;27.11;50.45
45939;BME280;31650;48.818;9.116;2022-10-17T11:42:52;98649.88;;;27.54;48.15
45939;BME280;31650;48.818;9.116;2022-10-17T11:58:11;98655.03;;;27.60;48.29
45939;BME280;31650;48.818;9.116;2022-10-17T12:28:28;98643.00;;;27.74;48.22
45939;BME280;31650;48.818;9.116;2022-10-17T12:58:29;98663.09;;;24.96;83.32
45939;BME280;31650;48.818;9.116;2022-10-17T13:13:45;98682.59;;;23.85;85.31
45939;BME280;31650;48.818;9.116;2022-10-17T13:29:22;98698.78;;;23.67;85.18
45939;BME280;31650;48.818;9.116;2022-10-17T13:44:15;98704.06;;;23.64;80.82
45939;BME280;31650;48.818;9.116;2022-10-17T13:59:20;98705.25;;;23.57;73.14
45939;BME280;31650;48.818;9.116;2022-10-17T14:14:22;98721.78;;;23.28;74.01
45939;BME280;31650;48.818;9.116;2022-10-17T14:29:26;98716.63;;;23.01;74.07
45939;BME280;31650;48.818;9.116;2022-10-17T14:44:30;98723.91;;;22.76;76.53
45939;BME280;31650;48.818;9.116;2022-10-17T14:59:31;98714.81;;;22.50;81.95
45939;BME280;31650;48.818;9.116;2022-10-17T15:14:31;98725.09;;;22.04;87.42
45939;BME280;31650;48.818;9.116;2022-10-17T15:29:31;98726.75;;;22.00;86.22
45939;BME280;31650;48.818;9.116;2022-10-17T15:44:32;98725.28;;;21.41;92.81
45939;BME280;31650;48.818;9.116;2022-10-17T15:59:32;98739.25;;;21.14;96.55
45939;BME280;31650;48.818;9.116;2022-10-17T16:14:33;98753.22;;;20.07;100.00
45939;BME280;31650;48.818;9.116;2022-10-17T16:29:34;98778.94;;;19.36;100.00
45939;BME280;31650;48.818;9.116;2022-10-17T16:44:34;98796.47;;;17.84;100.00
45939;BME280;31650;48.818;9.116;2022-10-17T16:59:34;98829.13;;;17.00;100.00
45939;BME280;31650;48.818;9.116;2022-10-17T17:14:34;98860.81;;;16.79;100.00
45939;BME280;31650;48.818;9.116;2022-10-17T17:29:34;98884.06;;;16.23;100.00
45939;BME280;31650;48.818;9.116;2022-10-17T17:44:35;98876.03;;;16.63;100.00
45939;BME280;31650;48.818;9.116;2022-10-17T17:59:36;98901.47;;;15.68;100.00
45939;BME280;31650;48.818;9.116;2022-10-17T18:14:37;98923.06;;;15.83;100.00
45939;BME280;31650;48.818;9.116;2022-10-17T18:29:37;98934.53;;;15.36;100.00
45939;BME280;31650;48.818;9.116;2022-10-17T18:44:37;98958.72;;;15.21;100.00
45939;BME280;31650;48.818;9.116;2022-10-17T18:59:37;98954.13;;;14.71;100.00
45939;BME280;31650;48.818;9.116;2022-10-17T19:14:38;98969.03;;;14.43;100.00
45939;BME280;31650;48.818;9.116;2022-10-17T19:29:38;98978.09;;;14.05;100.00
45939;BME280;31650;48.818;9.116;2022-10-17T19:44:42;98979.72;;;14.13;100.00
45939;BME280;31650;48.818;9.116;2022-10-17T19:59:42;98963.44;;;13.93;100.00
45939;BME280;31650;48.818;9.116;2022-10-17T20:14:42;98962.50;;;14.13;100.00
45939;BME280;31650;48.818;9.116;2022-10-17T20:29:43;98977.13;;;13.80;100.00
45939;BME280;31650;48.818;9.116;2022-10-17T20:44:43;98982.13;;;13.31;100.00
45939;BME280;31650;48.818;9.116;2022-10-17T20:59:43;99001.44;;;13.43;100.00
45939;BME280;31650;48.818;9.116;2022-10-17T21:14:44;98998.72;;;13.03;100.00
45939;BME280;31650;48.818;9.116;2022-10-17T21:29:45;98998.72;;;12.70;100.00
45939;BME280;31650;48.818;9.116;2022-10-17T21:44:46;99013.00;;;12.58;100.00
45939;BME280;31650;48.818;9.116;2022-10-17T21:59:46;98997.66;;;12.51;100.00
45939;BME280;31650;48.818;9.116;2022-10-17T22:14:46;98992.41;;;12.63;100.00
45939;BME280;31650;48.818;9.116;2022-10-17T22:29:46;98991.13;;;12.39;100.00
45939;BME280;31650;48.818;9.116;2022-10-17T22:44:47;98973.13;;;12.64;100.00
45939;BME280;31650;48.818;9.116;2022-10-17T22:59:48;98965.97;;;12.56;100.00
45939;BME280;31650;48.818;9.116;2022-10-17T23:14:48;98951.69;;;12.34;100.00
45939;BME280;31650;48.818;9.116;2022-10-17T23:29:49;98940.13;;;12.26;100.00
45939;BME280;31650;48.818;9.116;2022-10-17T23:44:49;98925.88;;;12.17;100.00
45939;BME280;31650;48.818;9.116;2022-10-17T23:59:49;98927.09;;;12.01;100.00
